createdAt,value
2018-08-20T00:01:26.680Z,19.20
2018-08-20T00:02:53.969Z,19.19
2018-08-20T00:04:22.579Z,19.15
2018-08-20T00:05:48.241Z,19.11
2018-08-20T00:07:15.851Z,19.10
2018-08-20T00:08:43.606Z,19.08
2018-08-20T00:10:11.140Z,19.04
2018-08-20T00:11:38.686Z,19.02
2018-08-20T00:13:05.336Z,19.01
2018-08-20T00:14:32.859Z,19.01
2018-08-20T00:16:01.429Z,18.99
2018-08-20T00:17:27.889Z,18.99
2018-08-20T00:18:55.415Z,18.98
2018-08-20T00:20:25.265Z,18.97
2018-08-20T00:21:49.531Z,18.95
2018-08-20T00:23:14.471Z,18.96
2018-08-20T00:24:42.928Z,18.97
2018-08-20T00:26:09.475Z,18.98
2018-08-20T00:27:37.099Z,18.98
2018-08-20T00:29:03.156Z,18.98
2018-08-20T00:30:29.820Z,18.97
2018-08-20T00:31:56.255Z,18.97
2018-08-20T00:33:24.992Z,18.97
2018-08-20T00:34:52.405Z,18.96
2018-08-20T00:36:17.506Z,18.96
2018-08-20T00:37:45.969Z,18.94
2018-08-20T00:39:12.570Z,18.94
2018-08-20T00:40:39.877Z,18.94
2018-08-20T00:42:08.390Z,18.94
2018-08-20T00:43:33.699Z,18.95
2018-08-20T00:45:02.105Z,18.96
2018-08-20T00:46:29.508Z,18.97
2018-08-20T00:47:54.617Z,18.99
2018-08-20T00:49:22.102Z,19.01
2018-08-20T00:50:49.658Z,19.02
2018-08-20T00:52:17.311Z,19.04
2018-08-20T00:53:44.810Z,19.05
2018-08-20T00:55:11.368Z,19.07
2018-08-20T00:56:38.801Z,19.08
2018-08-20T00:58:07.374Z,19.08
2018-08-20T00:59:34.031Z,19.08
2018-08-20T01:01:01.503Z,19.08
2018-08-20T01:02:28.616Z,19.10
2018-08-20T01:03:54.648Z,19.11
2018-08-20T01:05:22.052Z,19.09
2018-08-20T01:06:48.428Z,19.11
2018-08-20T01:08:17.077Z,19.12
2018-08-20T01:09:43.570Z,19.14
2018-08-20T01:11:11.189Z,19.16
2018-08-20T01:12:39.480Z,19.17
2018-08-20T01:14:07.126Z,19.19
2018-08-20T01:15:33.483Z,19.21
2018-08-20T01:17:02.048Z,19.24
2018-08-20T01:18:29.610Z,19.28
2018-08-20T01:19:56.972Z,19.31
2018-08-20T01:21:23.944Z,19.35
2018-08-20T01:22:50.221Z,19.38
2018-08-20T01:24:17.797Z,19.41
2018-08-20T01:25:46.403Z,19.44
2018-08-20T01:27:12.295Z,19.46
2018-08-20T01:28:39.699Z,19.48
2018-08-20T01:30:06.572Z,19.50
2018-08-20T01:31:33.025Z,19.52
2018-08-20T01:33:00.573Z,19.55
2018-08-20T01:34:28.233Z,19.57
2018-08-20T01:35:53.686Z,19.59
2018-08-20T01:37:21.016Z,19.61
2018-08-20T01:38:48.511Z,19.63
2018-08-20T01:40:15.960Z,19.65
2018-08-20T01:41:42.519Z,19.67
2018-08-20T01:43:09.512Z,19.68
2018-08-20T01:44:37.008Z,19.69
2018-08-20T01:46:05.694Z,19.69
2018-08-20T01:47:33.166Z,19.70
2018-08-20T01:49:00.716Z,19.70
2018-08-20T01:50:28.256Z,19.70
2018-08-20T01:51:55.544Z,19.71
2018-08-20T01:53:23.055Z,19.70
2018-08-20T01:54:50.558Z,19.71
2018-08-20T01:56:17.952Z,19.71
2018-08-20T01:57:43.452Z,19.71
2018-08-20T01:59:10.865Z,19.71
2018-08-20T02:00:39.340Z,19.71
2018-08-20T02:02:05.110Z,19.72
2018-08-20T02:03:33.593Z,19.71
2018-08-20T02:05:01.223Z,19.69
2018-08-20T02:06:28.667Z,19.69
2018-08-20T02:07:54.832Z,19.69
2018-08-20T02:09:23.512Z,19.69
2018-08-20T02:10:50.141Z,19.69
2018-08-20T02:12:20.598Z,19.69
2018-08-20T02:13:44.935Z,19.69
2018-08-20T02:15:12.579Z,19.69
2018-08-20T02:16:40.122Z,19.68
2018-08-20T02:18:05.730Z,19.68
2018-08-20T02:19:32.952Z,19.68
2018-08-20T02:21:00.350Z,19.67
2018-08-20T02:22:26.711Z,19.65
2018-08-20T02:23:55.253Z,19.64
2018-08-20T02:25:21.726Z,19.64
2018-08-20T02:26:49.339Z,19.63
2018-08-20T02:28:16.689Z,19.61
2018-08-20T02:29:43.299Z,19.60
2018-08-20T02:31:10.670Z,19.60
2018-08-20T02:32:38.093Z,19.59
2018-08-20T02:34:05.825Z,19.58
2018-08-20T02:35:32.195Z,19.55
2018-08-20T02:37:00.714Z,19.54
2018-08-20T02:38:26.388Z,19.52
2018-08-20T02:39:53.890Z,19.51
2018-08-20T02:41:20.323Z,19.52
2018-08-20T02:42:47.962Z,19.52
2018-08-20T02:44:15.428Z,19.52
2018-08-20T02:45:42.951Z,19.50
2018-08-20T02:47:11.371Z,19.48
2018-08-20T02:48:37.891Z,19.46
2018-08-20T02:50:05.345Z,19.43
2018-08-20T02:51:31.618Z,19.41
2018-08-20T02:52:59.719Z,19.41
2018-08-20T02:54:26.000Z,19.40
2018-08-20T02:55:54.618Z,19.40
2018-08-20T02:57:20.581Z,19.41
2018-08-20T02:58:47.003Z,19.42
2018-08-20T03:00:24.203Z,19.42
2018-08-20T03:01:50.891Z,19.44
2018-08-20T03:03:18.400Z,19.47
2018-08-20T03:04:45.868Z,19.52
2018-08-20T03:06:13.432Z,19.54
2018-08-20T03:07:42.155Z,19.56
2018-08-20T03:09:09.506Z,19.60
2018-08-20T03:10:35.235Z,19.60
2018-08-20T03:12:02.860Z,19.60
2018-08-20T03:13:30.188Z,19.61
2018-08-20T03:14:57.601Z,19.62
2018-08-20T03:16:26.202Z,19.62
2018-08-20T03:18:21.619Z,19.64
2018-08-20T03:19:48.777Z,19.65
2018-08-20T03:21:15.206Z,19.67
2018-08-20T03:22:42.424Z,19.70
2018-08-20T03:24:09.200Z,19.71
2018-08-20T03:25:37.797Z,19.70
2018-08-20T03:27:53.747Z,19.69
2018-08-20T03:29:18.734Z,19.70
2018-08-20T03:30:46.314Z,19.72
2018-08-20T03:32:14.599Z,19.73
2018-08-20T03:33:42.140Z,19.73
2018-08-20T03:35:18.669Z,19.72
2018-08-20T03:36:44.858Z,19.73
2018-08-20T03:38:12.291Z,19.75
2018-08-20T03:40:09.943Z,19.74
2018-08-20T03:41:36.174Z,19.77
2018-08-20T03:43:52.029Z,19.78
2018-08-20T03:45:19.176Z,19.79
2018-08-20T03:47:06.002Z,19.78
2018-08-20T03:48:32.175Z,19.79
2018-08-20T03:50:00.615Z,19.79
2018-08-20T03:56:28.351Z,19.80
2018-08-20T03:58:43.735Z,19.88
2018-08-20T04:00:09.747Z,19.91
2018-08-20T04:01:37.146Z,19.94
2018-08-20T04:03:04.557Z,19.97
2018-08-20T04:04:32.002Z,19.96
2018-08-20T04:05:59.382Z,19.92
2018-08-20T04:07:25.784Z,19.91
2018-08-20T04:20:31.939Z,20.11
2018-08-20T04:21:57.835Z,20.16
2018-08-20T04:23:24.236Z,20.22
2018-08-20T04:24:51.568Z,20.26
2018-08-20T04:26:18.825Z,20.24
2018-08-20T04:27:46.163Z,20.22
2018-08-20T04:29:14.710Z,20.22
2018-08-20T04:36:21.328Z,20.20
2018-08-20T04:42:18.686Z,20.32
2018-08-20T04:43:45.497Z,20.36
2018-08-20T04:45:12.956Z,20.39
2018-08-20T04:46:40.663Z,20.40
2018-08-20T04:49:44.074Z,20.36
2018-08-20T05:02:58.359Z,20.49
2018-08-20T05:04:24.831Z,20.56
2018-08-20T05:05:51.863Z,20.61
2018-08-20T05:07:18.328Z,20.65
2018-08-20T05:08:45.728Z,20.68
2018-08-20T05:10:14.401Z,20.69
2018-08-20T05:11:41.973Z,20.71
2018-08-20T05:13:08.309Z,20.74
2018-08-20T05:14:34.744Z,20.75
2018-08-20T05:16:01.364Z,20.71
2018-08-20T05:17:29.768Z,20.70
2018-08-20T05:18:56.353Z,20.70
2018-08-20T05:20:24.695Z,20.68
2018-08-20T05:21:52.175Z,20.67
2018-08-20T05:23:18.624Z,20.65
2018-08-20T05:26:03.623Z,20.63
2018-08-20T05:27:31.449Z,20.67
2018-08-20T05:28:58.907Z,20.69
2018-08-20T05:30:25.256Z,20.72
2018-08-20T05:31:52.867Z,20.71
2018-08-20T05:33:19.378Z,20.70
2018-08-20T05:34:55.902Z,20.72
2018-08-20T05:39:07.936Z,20.75
2018-08-20T05:43:18.748Z,20.88
2018-08-20T05:44:45.384Z,20.94
2018-08-20T05:46:11.817Z,21.01
2018-08-20T05:47:40.153Z,21.04
2018-08-20T05:49:06.729Z,21.08
2018-08-20T05:50:34.247Z,21.09
2018-08-20T05:52:04.828Z,21.09
2018-08-20T05:53:29.212Z,21.04
2018-08-20T05:54:57.134Z,21.03
2018-08-20T05:56:24.382Z,21.02
2018-08-20T05:57:50.936Z,21.04
2018-08-20T05:59:38.644Z,21.01
2018-08-20T06:03:02.312Z,21.03
2018-08-20T09:24:55.156Z,22.59
2018-08-20T09:26:21.848Z,22.61
2018-08-20T09:27:49.311Z,22.57
2018-08-20T09:29:17.689Z,22.59
2018-08-20T09:30:44.154Z,22.64
2018-08-20T09:32:11.879Z,22.66
2018-08-20T09:33:40.347Z,22.67
2018-08-20T09:35:07.881Z,22.67
2018-08-20T09:36:33.341Z,22.55
2018-08-20T09:38:02.001Z,22.44
2018-08-20T09:39:29.518Z,22.39
2018-08-20T09:40:56.922Z,22.32
2018-08-20T09:42:24.023Z,22.29
2018-08-20T09:43:50.403Z,22.22
2018-08-20T09:45:19.014Z,22.21
2018-08-20T09:46:45.494Z,22.26
2018-08-20T09:48:13.162Z,22.33
2018-08-20T09:49:40.727Z,22.39
2018-08-20T09:51:07.921Z,22.45
2018-08-20T09:52:35.315Z,22.52
2018-08-20T09:54:02.849Z,22.55
2018-08-20T09:55:30.736Z,22.55
2018-08-20T09:56:58.199Z,22.62
2018-08-20T09:58:24.696Z,22.65
2018-08-20T09:59:53.133Z,22.74
2018-08-20T10:01:20.855Z,22.79
2018-08-20T10:02:47.494Z,22.82
2018-08-20T10:04:16.220Z,22.88
2018-08-20T10:05:43.788Z,22.86
2018-08-20T10:07:11.083Z,22.91
2018-08-20T10:08:31.352Z,22.93
2018-08-20T10:10:04.856Z,22.98
2018-08-20T10:11:33.498Z,23.02
2018-08-20T10:13:00.065Z,23.07
2018-08-20T10:14:27.129Z,23.13
2018-08-20T10:15:55.496Z,23.21
2018-08-20T10:17:22.183Z,23.28
2018-08-20T10:18:49.818Z,23.38
2018-08-20T10:20:17.118Z,23.43
2018-08-20T10:21:44.536Z,23.48
2018-08-20T10:23:12.113Z,23.49
2018-08-20T10:24:39.675Z,23.50
2018-08-20T10:26:08.386Z,23.55
2018-08-20T10:27:34.940Z,23.62
2018-08-20T10:29:02.188Z,23.69
2018-08-20T10:30:29.548Z,23.76
2018-08-20T10:31:58.129Z,23.81
2018-08-20T10:33:24.261Z,23.87
2018-08-20T10:34:51.698Z,23.92
2018-08-20T10:36:20.209Z,24.05
2018-08-20T10:37:46.998Z,24.16
2018-08-20T10:39:14.516Z,24.16
2018-08-20T10:40:41.235Z,24.15
2018-08-20T10:42:08.853Z,24.16
2018-08-20T10:43:36.563Z,24.20
2018-08-20T10:45:05.200Z,24.24
2018-08-20T10:46:31.851Z,24.26
2018-08-20T10:47:58.904Z,24.30
2018-08-20T10:49:26.386Z,24.31
2018-08-20T10:50:54.864Z,24.26
2018-08-20T10:52:22.360Z,24.27
2018-08-20T10:53:49.049Z,24.25
2018-08-20T10:55:17.535Z,24.26
2018-08-20T10:56:45.250Z,24.31
2018-08-20T10:58:12.762Z,24.38
2018-08-20T10:59:39.266Z,24.40
2018-08-20T11:01:06.805Z,24.44
2018-08-20T11:02:34.401Z,24.44
2018-08-20T11:04:02.070Z,24.51
2018-08-20T11:05:28.351Z,24.57
2018-08-20T11:06:55.964Z,24.64
2018-08-20T11:08:22.927Z,24.66
2018-08-20T11:09:49.950Z,24.68
2018-08-20T11:11:17.539Z,24.68
2018-08-20T11:12:44.533Z,24.63
2018-08-20T11:14:13.085Z,24.58
2018-08-20T11:15:39.759Z,24.55
2018-08-20T11:17:07.353Z,24.46
2018-08-20T11:18:35.012Z,24.38
2018-08-20T11:20:01.751Z,24.28
2018-08-20T11:21:29.396Z,24.18
2018-08-20T11:22:57.128Z,24.04
2018-08-20T11:24:24.659Z,23.94
2018-08-20T11:25:51.848Z,23.82
2018-08-20T11:27:19.421Z,23.72
2018-08-20T11:28:47.193Z,23.67
2018-08-20T11:30:14.952Z,23.60
2018-08-20T11:31:41.613Z,23.49
2018-08-20T11:33:08.406Z,23.48
2018-08-20T11:34:36.893Z,23.50
2018-08-20T11:36:04.507Z,23.51
2018-08-20T11:37:30.743Z,23.55
2018-08-20T11:38:59.353Z,23.57
2018-08-20T11:40:26.284Z,23.58
2018-08-20T11:41:53.720Z,23.58
2018-08-20T11:43:21.306Z,23.56
2018-08-20T11:44:47.386Z,23.56
2018-08-20T11:46:14.430Z,23.56
2018-08-20T11:47:43.096Z,23.60
2018-08-20T11:49:09.573Z,23.66
2018-08-20T11:50:38.268Z,23.73
2018-08-20T11:52:04.915Z,23.77
2018-08-20T11:53:32.247Z,23.87
2018-08-20T11:55:00.967Z,23.93
2018-08-20T11:56:27.381Z,23.89
2018-08-20T11:57:55.398Z,23.83
2018-08-20T11:59:22.933Z,23.79
2018-08-20T12:00:49.209Z,23.76
2018-08-20T12:02:16.928Z,23.74
2018-08-20T12:03:43.717Z,23.71
2018-08-20T12:05:10.782Z,23.66
2018-08-20T12:06:37.833Z,23.62
2018-08-20T12:08:05.453Z,23.56
2018-08-20T12:09:32.990Z,23.55
2018-08-20T12:11:00.521Z,23.53
2018-08-20T12:12:28.963Z,23.52
2018-08-20T12:13:55.543Z,23.47
2018-08-20T12:15:22.278Z,23.36
2018-08-20T12:16:49.786Z,23.27
2018-08-20T12:18:16.865Z,23.26
2018-08-20T12:19:45.468Z,23.27
2018-08-20T12:21:12.375Z,23.26
2018-08-20T12:22:39.024Z,23.29
2018-08-20T12:24:06.522Z,23.40
2018-08-20T12:25:33.040Z,23.57
2018-08-20T12:27:00.660Z,23.69
2018-08-20T12:28:28.060Z,23.80
2018-08-20T12:29:55.416Z,23.84
2018-08-20T12:31:23.960Z,23.84
2018-08-20T12:32:50.245Z,23.86
2018-08-20T12:34:17.797Z,23.84
2018-08-20T12:35:48.184Z,23.88
2018-08-20T12:37:12.634Z,23.90
2018-08-20T12:38:41.236Z,23.89
2018-08-20T12:40:08.045Z,23.95
2018-08-20T12:41:35.536Z,24.02
2018-08-20T12:43:03.999Z,24.09
2018-08-20T12:44:30.565Z,24.14
2018-08-20T12:45:59.036Z,24.20
2018-08-20T12:47:25.460Z,24.24
2018-08-20T12:48:52.945Z,24.23
2018-08-20T12:50:20.252Z,24.26
2018-08-20T12:51:47.878Z,24.30
2018-08-20T12:53:15.334Z,24.36
2018-08-20T12:54:43.009Z,24.46
2018-08-20T12:56:10.568Z,24.55
2018-08-20T12:57:39.140Z,24.63
2018-08-20T12:59:06.152Z,24.68
2018-08-20T13:00:32.761Z,24.71
2018-08-20T13:01:59.810Z,24.66
2018-08-20T13:03:27.329Z,24.57
2018-08-20T13:04:55.089Z,24.51
2018-08-20T13:06:21.629Z,24.41
2018-08-20T13:07:49.224Z,24.27
2018-08-20T13:09:16.722Z,24.18
2018-08-20T13:10:45.351Z,24.08
2018-08-20T13:12:11.587Z,23.97
2018-08-20T13:13:40.034Z,23.91
2018-08-20T13:15:07.583Z,23.88
2018-08-20T13:16:35.080Z,23.84
2018-08-20T13:18:01.917Z,23.83
2018-08-20T13:19:28.455Z,23.87
2018-08-20T13:20:55.910Z,23.87
2018-08-20T13:22:23.573Z,23.90
2018-08-20T13:23:52.104Z,23.95
2018-08-20T13:25:18.589Z,23.96
2018-08-20T13:26:46.140Z,24.05
2018-08-20T13:28:14.884Z,24.10
2018-08-20T13:29:41.352Z,24.10
2018-08-20T13:31:09.017Z,24.11
2018-08-20T13:32:35.607Z,24.13
2018-08-20T13:34:03.210Z,24.12
2018-08-20T13:35:31.424Z,24.01
2018-08-20T13:36:58.949Z,23.94
2018-08-20T13:38:25.459Z,23.93
2018-08-20T13:39:52.703Z,23.93
2018-08-20T13:41:20.177Z,23.88
2018-08-20T13:42:48.639Z,23.84
2018-08-20T13:44:15.233Z,23.78
2018-08-20T13:45:43.348Z,23.55
2018-08-20T13:47:09.631Z,23.45
2018-08-20T13:48:37.161Z,23.42
2018-08-20T13:50:04.901Z,23.41
2018-08-20T13:51:32.946Z,23.43
2018-08-20T13:53:00.454Z,23.49
2018-08-20T13:54:27.731Z,23.56
2018-08-20T13:55:54.244Z,23.65
2018-08-20T13:57:22.268Z,23.71
2018-08-20T13:58:49.911Z,23.72
2018-08-20T14:00:17.592Z,23.65
2018-08-20T14:01:44.476Z,23.64
2018-08-20T14:03:11.195Z,23.64
2018-08-20T14:04:38.546Z,23.65
2018-08-20T14:06:05.179Z,23.67
2018-08-20T14:07:32.548Z,23.67
2018-08-20T14:09:00.294Z,23.66
2018-08-20T14:10:27.735Z,23.58
2018-08-20T14:11:55.227Z,23.52
2018-08-20T14:13:23.481Z,23.45
2018-08-20T14:14:50.051Z,23.42
2018-08-20T14:16:18.578Z,23.41
2018-08-20T14:17:46.244Z,23.44
2018-08-20T14:19:13.783Z,23.47
2018-08-20T14:20:39.899Z,23.49
2018-08-20T14:22:08.546Z,23.53
2018-08-20T14:23:36.118Z,23.53
2018-08-20T14:25:02.387Z,23.54
2018-08-20T14:26:29.247Z,23.57
2018-08-20T14:27:57.714Z,23.57
2018-08-20T14:29:25.238Z,23.61
2018-08-20T14:30:51.452Z,23.59
2018-08-20T14:32:18.957Z,23.57
2018-08-20T14:33:46.425Z,23.57
2018-08-20T14:35:15.084Z,23.56
2018-08-20T14:36:41.761Z,23.53
2018-08-20T14:38:10.208Z,23.52
2018-08-20T14:39:36.703Z,23.54
2018-08-20T14:41:05.217Z,23.57
2018-08-20T14:42:31.673Z,23.61
2018-08-20T14:43:59.341Z,23.56
2018-08-20T14:45:27.796Z,23.52
2018-08-20T14:46:54.368Z,23.52
2018-08-20T14:48:22.827Z,23.51
2018-08-20T14:49:50.356Z,23.47
2018-08-20T14:51:17.897Z,23.48
2018-08-20T14:52:45.418Z,23.53
2018-08-20T14:54:12.772Z,23.58
2018-08-20T14:55:39.132Z,23.59
2018-08-20T14:57:06.649Z,23.55
2018-08-20T14:58:33.899Z,23.53
2018-08-20T15:00:01.369Z,23.53
2018-08-20T15:01:30.173Z,23.54
2018-08-20T15:02:56.732Z,23.58
2018-08-20T15:04:24.412Z,23.60
2018-08-20T15:05:51.768Z,23.60
2018-08-20T15:07:20.438Z,23.56
2018-08-20T15:08:46.923Z,23.58
2018-08-20T15:10:15.568Z,23.57
2018-08-20T15:11:40.951Z,23.51
2018-08-20T15:13:09.193Z,23.49
2018-08-20T15:14:35.820Z,23.48
2018-08-20T15:16:04.497Z,23.49
2018-08-20T15:17:31.124Z,23.48
2018-08-20T15:18:58.471Z,23.43
2018-08-20T15:20:26.167Z,23.40
2018-08-20T15:21:54.496Z,23.38
2018-08-20T15:23:20.830Z,23.33
2018-08-20T15:24:48.581Z,23.33
2018-08-20T15:26:16.182Z,23.34
2018-08-20T15:27:43.703Z,23.37
2018-08-20T15:29:11.010Z,23.39
2018-08-20T15:30:38.400Z,23.40
2018-08-20T15:32:06.890Z,23.40
2018-08-20T15:33:33.349Z,23.39
2018-08-20T15:35:00.977Z,23.38
2018-08-20T15:36:28.329Z,23.35
2018-08-20T15:37:56.389Z,23.32
2018-08-20T15:39:23.885Z,23.30
2018-08-20T15:40:50.234Z,23.27
2018-08-20T15:42:17.914Z,23.28
2018-08-20T15:43:45.261Z,23.28
2018-08-20T15:45:13.775Z,23.26
2018-08-20T15:46:40.091Z,23.26
2018-08-20T15:48:08.759Z,23.29
2018-08-20T15:49:35.293Z,23.30
2018-08-20T15:51:02.785Z,23.28
2018-08-20T15:52:30.178Z,23.28
2018-08-20T15:53:57.859Z,23.26
2018-08-20T15:55:25.175Z,23.23
2018-08-20T15:56:52.632Z,23.19
2018-08-20T15:58:20.430Z,23.14
2018-08-20T15:59:47.726Z,23.14
2018-08-20T16:01:15.364Z,23.09
2018-08-20T16:02:42.872Z,23.10
2018-08-20T16:04:10.310Z,23.09
2018-08-20T16:05:38.055Z,23.07
2018-08-20T16:07:05.519Z,23.06
2018-08-20T16:08:32.859Z,23.04
2018-08-20T16:10:00.143Z,23.01
2018-08-20T16:11:27.715Z,23.00
2018-08-20T16:12:54.946Z,23.00
2018-08-20T16:14:23.452Z,23.00
2018-08-20T16:15:50.093Z,23.00
2018-08-20T16:17:18.255Z,22.99
2018-08-20T16:18:44.785Z,22.97
2018-08-20T16:20:13.536Z,22.96
2018-08-20T16:21:39.920Z,22.98
2018-08-20T16:23:07.355Z,22.99
2018-08-20T16:24:36.137Z,22.99
2018-08-20T16:26:03.665Z,22.99
2018-08-20T16:27:31.343Z,22.97
2018-08-20T16:28:57.530Z,22.97
2018-08-20T16:30:26.118Z,22.97
2018-08-20T16:31:53.631Z,22.94
2018-08-20T16:33:20.197Z,22.91
2018-08-20T16:34:48.706Z,22.83
2018-08-20T16:36:16.050Z,22.77
2018-08-20T16:37:43.467Z,22.72
2018-08-20T16:39:11.081Z,22.64
2018-08-20T16:40:38.528Z,22.61
2018-08-20T16:42:04.999Z,22.58
2018-08-20T16:43:31.676Z,22.52
2018-08-20T16:44:59.218Z,22.48
2018-08-20T16:46:27.828Z,22.48
2018-08-20T16:47:54.241Z,22.49
2018-08-20T16:49:21.197Z,22.51
2018-08-20T16:50:49.802Z,22.52
2018-08-20T16:52:16.169Z,22.51
2018-08-20T16:53:44.594Z,22.47
2018-08-20T16:55:12.192Z,22.41
2018-08-20T16:56:39.680Z,22.33
2018-08-20T16:58:07.069Z,22.30
2018-08-20T16:59:33.534Z,22.29
2018-08-20T17:01:01.746Z,22.32
2018-08-20T17:02:28.346Z,22.34
2018-08-20T17:03:55.911Z,22.35
2018-08-20T17:05:24.494Z,22.36
2018-08-20T17:06:50.269Z,22.38
2018-08-20T17:08:17.835Z,22.38
2018-08-20T17:09:45.235Z,22.40
2018-08-20T17:11:12.899Z,22.40
2018-08-20T17:12:41.475Z,22.39
2018-08-20T17:14:08.879Z,22.37
2018-08-20T17:15:35.679Z,22.34
2018-08-20T17:17:03.292Z,22.30
2018-08-20T17:18:30.734Z,22.27
2018-08-20T17:19:57.154Z,22.26
2018-08-20T17:21:24.411Z,22.15
2018-08-20T17:22:52.642Z,22.12
2018-08-20T17:24:19.097Z,22.11
2018-08-20T17:25:45.673Z,22.09
2018-08-20T17:27:13.326Z,22.03
2018-08-20T17:28:40.698Z,21.99
2018-08-20T17:30:08.304Z,21.99
2018-08-20T17:31:35.468Z,22.00
2018-08-20T17:33:03.847Z,21.97
2018-08-20T17:34:30.259Z,21.95
2018-08-20T17:35:57.614Z,21.91
2018-08-20T17:37:24.607Z,21.87
2018-08-20T17:38:52.004Z,21.79
2018-08-20T17:40:19.415Z,21.75
2018-08-20T17:41:47.190Z,21.72
2018-08-20T17:43:13.979Z,21.68
2018-08-20T17:44:41.390Z,21.65
2018-08-20T17:46:09.047Z,21.59
2018-08-20T17:47:36.563Z,21.53
2018-08-20T17:49:05.174Z,21.50
2018-08-20T17:50:32.648Z,21.52
2018-08-20T17:52:02.214Z,21.53
2018-08-20T17:53:26.529Z,21.53
2018-08-20T17:54:54.137Z,21.51
2018-08-20T17:56:21.191Z,21.52
2018-08-20T17:57:48.804Z,21.50
2018-08-20T17:59:17.361Z,21.50
2018-08-20T18:00:43.742Z,21.47
2018-08-20T18:02:11.546Z,21.47
2018-08-20T18:03:38.922Z,21.44
2018-08-20T18:05:06.422Z,21.42
2018-08-20T18:06:34.165Z,21.43
2018-08-20T18:08:01.676Z,21.40
2018-08-20T18:09:29.243Z,21.38
2018-08-20T18:10:57.491Z,21.34
2018-08-20T18:12:24.476Z,21.34
2018-08-20T18:13:50.852Z,21.29
2018-08-20T18:15:18.417Z,21.26
2018-08-20T18:16:45.952Z,21.23
2018-08-20T18:18:14.604Z,21.20
2018-08-20T18:19:41.115Z,21.21
2018-08-20T18:21:09.637Z,21.20
2018-08-20T18:22:37.256Z,21.17
2018-08-20T18:24:02.959Z,21.18
2018-08-20T18:25:30.487Z,21.18
2018-08-20T18:26:57.979Z,21.17
2018-08-20T18:28:23.927Z,21.14
2018-08-20T18:29:51.339Z,21.08
2018-08-20T18:31:17.836Z,21.07
2018-08-20T18:32:46.386Z,21.08
2018-08-20T18:34:12.780Z,21.06
2018-08-20T18:35:40.308Z,21.07
2018-08-20T18:37:07.844Z,21.06
2018-08-20T18:38:35.519Z,21.04
2018-08-20T18:40:02.199Z,21.07
2018-08-20T18:41:29.760Z,21.06
2018-08-20T18:42:57.408Z,21.09
2018-08-20T18:44:25.724Z,21.10
2018-08-20T18:45:51.909Z,21.12
2018-08-20T18:47:19.346Z,21.12
2018-08-20T18:48:48.017Z,21.09
2018-08-20T18:50:13.264Z,21.03
2018-08-20T18:51:41.935Z,21.01
2018-08-20T18:53:08.373Z,20.98
2018-08-20T18:54:37.112Z,21.00
2018-08-20T18:56:03.662Z,21.02
2018-08-20T18:57:31.154Z,21.01
2018-08-20T18:58:58.675Z,21.02
2018-08-20T19:00:27.240Z,21.03
2018-08-20T19:01:52.448Z,21.01
2018-08-20T19:03:20.034Z,21.02
2018-08-20T19:04:47.503Z,21.01
2018-08-20T19:06:14.996Z,21.02
2018-08-20T19:07:42.541Z,21.03
2018-08-20T19:09:10.057Z,21.03
2018-08-20T19:10:38.779Z,21.04
2018-08-20T19:12:06.405Z,21.03
2018-08-20T19:13:32.903Z,21.04
2018-08-20T19:15:01.284Z,21.04
2018-08-20T19:16:28.153Z,21.02
2018-08-20T19:17:54.960Z,21.00
2018-08-20T19:19:22.606Z,21.00
2018-08-20T19:20:49.943Z,20.98
2018-08-20T19:22:16.593Z,20.96
2018-08-20T19:23:44.091Z,20.94
2018-08-20T19:25:12.847Z,20.93
2018-08-20T19:26:39.344Z,20.94
2018-08-20T19:28:07.968Z,20.90
2018-08-20T19:29:34.327Z,20.88
2018-08-20T19:31:02.903Z,20.83
2018-08-20T19:32:28.407Z,20.82
2018-08-20T19:33:55.880Z,20.81
2018-08-20T19:35:24.618Z,20.81
2018-08-20T19:36:51.843Z,20.79
2018-08-20T19:38:18.290Z,20.79
2018-08-20T19:39:46.736Z,20.79
2018-08-20T19:41:13.206Z,20.77
2018-08-20T19:42:40.824Z,20.76
2018-08-20T19:44:09.434Z,20.74
2018-08-20T19:45:35.999Z,20.76
2018-08-20T19:47:03.411Z,20.76
2018-08-20T19:48:30.784Z,20.75
2018-08-20T19:49:56.362Z,20.75
2018-08-20T19:51:23.999Z,20.71
2018-08-20T19:52:52.432Z,20.70
2018-08-20T19:54:18.745Z,20.69
2018-08-20T19:55:45.270Z,20.69
2018-08-20T19:57:12.680Z,20.67
2018-08-20T19:58:39.194Z,20.68
2018-08-20T20:00:06.034Z,20.65
2018-08-20T20:01:34.419Z,20.64
2018-08-20T20:03:01.956Z,20.63
2018-08-20T20:04:28.617Z,20.62
2018-08-20T20:05:56.142Z,20.62
2018-08-20T20:07:22.451Z,20.63
2018-08-20T20:08:50.037Z,20.64
2018-08-20T20:10:17.517Z,20.65
2018-08-20T20:11:46.267Z,20.63
2018-08-20T20:13:12.605Z,20.60
2018-08-20T20:14:40.320Z,20.59
2018-08-20T20:16:08.955Z,20.59
2018-08-20T20:17:34.963Z,20.59
2018-08-20T20:19:02.578Z,20.60
2018-08-20T20:20:30.096Z,20.59
2018-08-20T20:21:56.884Z,20.57
2018-08-20T20:23:24.205Z,20.57
2018-08-20T20:24:52.842Z,20.59
2018-08-20T20:26:18.346Z,20.59
2018-08-20T20:27:45.902Z,20.57
2018-08-20T20:29:14.644Z,20.57
2018-08-20T20:30:41.081Z,20.57
2018-08-20T20:32:08.678Z,20.57
2018-08-20T20:33:34.323Z,20.56
2018-08-20T20:35:00.420Z,20.53
2018-08-20T20:36:27.617Z,20.50
2018-08-20T20:37:55.209Z,20.45
2018-08-20T20:39:22.613Z,20.43
2018-08-20T20:40:51.130Z,20.41
2018-08-20T20:42:17.479Z,20.38
2018-08-20T20:43:45.168Z,20.34
2018-08-20T20:45:12.609Z,20.33
2018-08-20T20:46:41.091Z,20.28
2018-08-20T20:48:08.779Z,20.24
2018-08-20T20:49:35.163Z,20.22
2018-08-20T20:51:03.885Z,20.20
2018-08-20T20:52:29.225Z,20.20
2018-08-20T20:53:57.510Z,20.19
2018-08-20T20:55:23.389Z,20.14
2018-08-20T20:56:51.653Z,20.09
2018-08-20T20:58:19.091Z,20.07
2018-08-20T20:59:45.892Z,20.05
2018-08-20T21:01:12.364Z,20.05
2018-08-20T21:02:40.828Z,20.07
2018-08-20T21:04:07.326Z,20.04
2018-08-20T21:05:33.824Z,19.96
2018-08-20T21:07:01.459Z,19.95
2018-08-20T21:08:29.973Z,19.95
2018-08-20T21:09:56.332Z,19.97
2018-08-20T21:11:23.943Z,19.95
2018-08-20T21:12:52.515Z,19.97
2018-08-20T21:14:18.330Z,19.96
2018-08-20T21:15:45.692Z,19.97
2018-08-20T21:17:12.126Z,19.94
2018-08-20T21:18:40.610Z,19.85
2018-08-20T21:20:06.909Z,19.79
2018-08-20T21:21:35.653Z,19.72
2018-08-20T21:23:03.158Z,19.67
2018-08-20T21:24:30.631Z,19.63
2018-08-20T21:25:56.219Z,19.63
2018-08-20T21:27:24.508Z,19.58
2018-08-20T21:28:50.698Z,19.55
2018-08-20T21:30:19.273Z,19.51
2018-08-20T21:31:45.798Z,19.46
2018-08-20T21:33:13.374Z,19.41
2018-08-20T21:34:42.065Z,19.35
2018-08-20T21:36:08.669Z,19.31
2018-08-20T21:37:35.087Z,19.27
2018-08-20T21:39:03.531Z,19.24
2018-08-20T21:41:57.210Z,19.12
2018-08-20T21:43:25.768Z,19.11
2018-08-20T21:44:51.841Z,19.06
2018-08-20T21:46:20.304Z,19.04
2018-08-20T21:47:46.883Z,18.99
2018-08-20T21:49:15.403Z,18.93
2018-08-20T21:50:41.885Z,18.88
2018-08-20T21:52:09.385Z,18.88
2018-08-20T21:53:36.923Z,18.90
2018-08-20T21:55:05.413Z,18.91
2018-08-20T21:56:32.775Z,18.89
2018-08-20T21:58:00.205Z,18.87
2018-08-20T21:59:26.593Z,18.84
2018-08-20T22:00:53.220Z,18.78
2018-08-20T22:02:21.683Z,18.72
2018-08-20T22:03:48.273Z,18.69
2018-08-20T22:05:15.841Z,18.66
2018-08-20T22:06:43.437Z,18.63
2018-08-20T22:08:10.945Z,18.60
2018-08-20T22:09:37.376Z,18.56
2018-08-20T22:11:05.669Z,18.52
2018-08-20T22:12:31.116Z,18.49
2018-08-20T22:13:58.866Z,18.47
2018-08-20T22:15:25.095Z,18.42
2018-08-20T22:16:52.455Z,18.38
2018-08-20T22:18:20.025Z,18.40
2018-08-20T22:19:47.712Z,18.44
2018-08-20T22:21:15.078Z,18.49
2018-08-20T22:22:43.631Z,18.55
2018-08-20T22:24:10.948Z,18.57
2018-08-20T22:25:37.785Z,18.57
2018-08-20T22:27:05.113Z,18.60
2018-08-20T22:28:30.601Z,18.60
2018-08-20T22:29:57.414Z,18.58
2018-08-20T22:31:25.756Z,18.52
2018-08-20T22:32:52.297Z,18.44
2018-08-20T22:34:20.852Z,18.37
2018-08-20T22:35:47.324Z,18.37
2018-08-20T22:37:14.667Z,18.34
2018-08-20T22:38:43.263Z,18.36
2018-08-20T22:40:09.784Z,18.37
2018-08-20T22:41:37.358Z,18.40
2018-08-20T22:43:05.242Z,18.41
2018-08-20T22:44:31.988Z,18.38
2018-08-20T22:45:58.347Z,18.42
2018-08-20T22:47:26.973Z,18.46
2018-08-20T22:48:54.365Z,18.47
2018-08-20T22:50:20.616Z,18.51
2018-08-20T22:51:48.872Z,18.55
2018-08-20T22:53:16.383Z,18.53
2018-08-20T22:54:43.950Z,18.52
2018-08-20T22:56:10.468Z,18.51
2018-08-20T22:57:38.020Z,18.52
2018-08-20T22:59:06.559Z,18.54
2018-08-20T23:00:33.445Z,18.55